createdAt,value
2018-11-11T00:00:52.762Z,5.62
2018-11-11T00:03:20.528Z,3.70
2018-11-11T00:05:48.244Z,4.60
2018-11-11T00:08:15.840Z,10.78
2018-11-11T00:10:43.508Z,6.95
2018-11-11T00:13:11.770Z,4.92
2018-11-11T00:15:39.370Z,3.65
2018-11-11T00:18:07.106Z,3.62
2018-11-11T00:20:34.719Z,3.75
2018-11-11T00:23:02.332Z,3.98
2018-11-11T00:25:29.969Z,3.85
2018-11-11T00:27:57.630Z,3.62
2018-11-11T00:30:25.217Z,2.67
2018-11-11T00:32:52.882Z,2.65
2018-11-11T00:35:21.085Z,4.10
2018-11-11T00:37:48.811Z,3.40
2018-11-11T00:40:16.481Z,2.30
2018-11-11T00:42:44.833Z,2.45
2018-11-11T00:45:13.102Z,3.10
2018-11-11T00:47:40.760Z,2.98
2018-11-11T00:50:09.389Z,2.77
2018-11-11T00:52:37.733Z,2.75
2018-11-11T00:55:07.514Z,3.25
2018-11-11T00:57:35.150Z,2.98
2018-11-11T01:00:03.365Z,3.92
2018-11-11T01:02:31.033Z,3.72
2018-11-11T01:04:59.666Z,3.80
2018-11-11T01:07:27.377Z,3.05
2018-11-11T01:09:55.005Z,3.67
2018-11-11T01:12:24.139Z,3.10
2018-11-11T01:14:52.379Z,3.47
2018-11-11T01:17:20.758Z,2.22
2018-11-11T01:19:48.373Z,3.08
2018-11-11T01:22:16.385Z,2.25
2018-11-11T01:24:43.946Z,1.60
2018-11-11T01:27:11.738Z,5.97
2018-11-11T01:29:39.412Z,3.42
2018-11-11T01:32:07.061Z,3.85
2018-11-11T01:34:34.750Z,1.95
2018-11-11T01:37:02.478Z,2.45
2018-11-11T01:39:30.263Z,2.35
2018-11-11T01:41:57.877Z,1.85
2018-11-11T01:44:25.525Z,3.95
2018-11-11T01:46:53.168Z,2.22
2018-11-11T01:49:21.159Z,3.25
2018-11-11T01:51:48.706Z,3.22
2018-11-11T01:54:16.314Z,2.87
2018-11-11T01:56:44.545Z,4.28
2018-11-11T01:59:13.542Z,2.98
2018-11-11T02:01:41.252Z,2.50
2018-11-11T02:04:08.937Z,4.55
2018-11-11T02:06:36.758Z,1.82
2018-11-11T02:09:07.260Z,3.45
2018-11-11T02:11:34.954Z,3.00
2018-11-11T02:14:02.912Z,2.37
2018-11-11T02:16:30.686Z,2.55
2018-11-11T02:18:58.294Z,3.75
2018-11-11T02:21:26.566Z,4.22
2018-11-11T02:23:54.250Z,3.55
2018-11-11T02:26:22.503Z,4.30
2018-11-11T02:28:50.277Z,4.85
2018-11-11T02:31:17.876Z,3.87
2018-11-11T02:33:45.483Z,5.25
2018-11-11T02:36:13.106Z,6.08
2018-11-11T02:38:41.421Z,4.20
2018-11-11T02:41:09.708Z,4.00
2018-11-11T02:43:38.020Z,3.50
2018-11-11T02:46:06.165Z,3.92
2018-11-11T02:48:34.180Z,3.25
2018-11-11T02:51:02.333Z,3.70
2018-11-11T02:53:30.196Z,2.37
2018-11-11T02:55:57.920Z,3.27
2018-11-11T02:58:25.523Z,4.87
2018-11-11T03:00:53.175Z,3.75
2018-11-11T03:03:20.871Z,3.62
2018-11-11T03:05:49.086Z,3.08
2018-11-11T03:08:16.681Z,4.05
2018-11-11T03:10:44.443Z,2.60
2018-11-11T03:13:12.161Z,3.47
2018-11-11T03:15:39.995Z,3.12
2018-11-11T03:18:07.970Z,5.03
2018-11-11T03:20:35.634Z,3.77
2018-11-11T03:23:03.839Z,3.05
2018-11-11T03:25:32.106Z,5.20
2018-11-11T03:28:01.074Z,3.08
2018-11-11T03:30:28.813Z,3.00
2018-11-11T03:32:56.706Z,3.35
2018-11-11T03:35:25.120Z,3.20
2018-11-11T03:37:52.869Z,3.85
2018-11-11T03:40:21.198Z,4.40
2018-11-11T03:42:49.860Z,2.83
2018-11-11T03:45:18.980Z,3.37
2018-11-11T03:47:48.721Z,3.15
2018-11-11T03:50:16.706Z,3.37
2018-11-11T03:52:44.813Z,5.80
2018-11-11T03:55:13.250Z,3.95
2018-11-11T03:57:41.384Z,3.00
2018-11-11T04:00:10.568Z,3.15
2018-11-11T04:02:38.297Z,2.15
2018-11-11T04:05:06.915Z,4.10
2018-11-11T04:07:34.684Z,4.12
2018-11-11T04:10:02.448Z,3.35
2018-11-11T04:12:30.085Z,3.85
2018-11-11T04:14:57.677Z,3.85
2018-11-11T04:17:25.434Z,6.35
2018-11-11T04:19:53.153Z,5.25
2018-11-11T04:22:20.846Z,3.67
2018-11-11T04:24:49.782Z,2.77
2018-11-11T04:27:17.838Z,2.77
2018-11-11T04:29:45.485Z,3.37
2018-11-11T04:32:13.969Z,3.37
2018-11-11T04:34:42.535Z,3.00
2018-11-11T04:37:10.473Z,2.60
2018-11-11T04:39:38.762Z,4.42
2018-11-11T04:42:06.989Z,2.85
2018-11-11T04:44:35.393Z,2.50
2018-11-11T04:47:03.058Z,3.05
2018-11-11T04:49:31.002Z,2.50
2018-11-11T04:51:58.630Z,4.03
2018-11-11T04:54:26.237Z,3.40
2018-11-11T04:56:53.895Z,3.00
2018-11-11T04:59:21.593Z,3.27
2018-11-11T05:01:49.306Z,3.40
2018-11-11T05:04:17.461Z,2.42
2018-11-11T05:06:45.062Z,5.83
2018-11-11T05:09:13.397Z,2.52
2018-11-11T05:11:40.998Z,2.22
2018-11-11T05:14:09.888Z,1.87
2018-11-11T05:16:38.349Z,1.62
2018-11-11T05:19:06.947Z,2.60
2018-11-11T05:21:34.655Z,2.22
2018-11-11T05:24:02.619Z,2.67
2018-11-11T05:26:30.243Z,2.15
2018-11-11T05:28:57.818Z,3.30
2018-11-11T05:31:25.465Z,2.52
2018-11-11T05:33:53.058Z,2.70
2018-11-11T05:36:20.800Z,2.70
2018-11-11T05:38:48.454Z,3.17
2018-11-11T05:41:16.145Z,2.85
2018-11-11T05:43:43.880Z,4.40
2018-11-11T05:46:11.758Z,3.90
2018-11-11T05:48:39.403Z,3.35
2018-11-11T05:51:07.004Z,3.12
2018-11-11T05:53:34.563Z,3.10
2018-11-11T05:56:02.271Z,4.30
2018-11-11T05:58:29.906Z,2.83
2018-11-11T06:00:57.512Z,3.33
2018-11-11T06:03:25.172Z,3.42
2018-11-11T06:05:53.545Z,3.42
2018-11-11T06:08:21.737Z,4.40
2018-11-11T06:10:49.929Z,3.50
2018-11-11T06:13:17.565Z,7.47
2018-11-11T06:15:45.126Z,4.40
2018-11-11T06:18:12.625Z,4.30
2018-11-11T06:20:40.231Z,3.77
2018-11-11T06:23:07.773Z,5.35
2018-11-11T06:25:35.435Z,8.15
2018-11-11T06:28:03.037Z,16.07
2018-11-11T06:30:30.777Z,17.45
2018-11-11T06:32:58.365Z,23.47
2018-11-11T06:35:26.145Z,20.88
2018-11-11T06:37:53.739Z,19.70
2018-11-11T06:40:21.459Z,20.82
2018-11-11T06:42:49.075Z,21.07
2018-11-11T06:45:16.878Z,17.92
2018-11-11T06:47:44.799Z,20.65
2018-11-11T06:50:13.455Z,28.52
2018-11-11T06:52:41.717Z,19.82
2018-11-11T06:55:09.525Z,23.50
2018-11-11T06:57:37.569Z,23.87
2018-11-11T07:00:06.792Z,16.90
2018-11-11T07:02:37.680Z,12.60
2018-11-11T07:05:06.702Z,11.10
2018-11-11T07:07:34.639Z,8.38
2018-11-11T07:10:02.241Z,11.73
2018-11-11T07:12:30.828Z,13.58
2018-11-11T07:14:58.931Z,15.53
2018-11-11T07:17:26.831Z,15.30
2018-11-11T07:19:54.432Z,9.55
2018-11-11T07:22:22.258Z,8.78
2018-11-11T07:24:50.013Z,5.75
2018-11-11T07:27:17.991Z,4.30
2018-11-11T07:29:45.880Z,4.12
2018-11-11T07:32:13.827Z,5.72
2018-11-11T07:34:41.671Z,3.67
2018-11-11T07:37:09.397Z,3.30
2018-11-11T07:39:36.946Z,2.20
2018-11-11T07:42:04.963Z,3.20
2018-11-11T07:44:33.090Z,2.37
2018-11-11T07:47:01.050Z,2.58
2018-11-11T07:49:28.729Z,1.52
2018-11-11T07:51:56.464Z,2.33
2018-11-11T07:54:24.893Z,1.72
2018-11-11T07:56:52.738Z,1.52
2018-11-11T07:59:20.399Z,1.20
2018-11-11T08:01:48.207Z,3.05
2018-11-11T08:04:15.881Z,1.92
2018-11-11T08:06:43.978Z,1.65
2018-11-11T08:09:12.046Z,1.15
2018-11-11T08:11:51.069Z,1.40
2018-11-11T08:14:18.946Z,3.75
2018-11-11T08:16:47.459Z,1.40
2018-11-11T08:19:15.510Z,1.77
2018-11-11T08:21:43.259Z,1.70
2018-11-11T08:24:11.042Z,3.10
2018-11-11T08:26:38.858Z,1.62
2018-11-11T08:29:07.411Z,1.65
2018-11-11T08:31:35.045Z,2.50
2018-11-11T08:34:02.753Z,1.17
2018-11-11T08:36:30.459Z,1.52
2018-11-11T08:38:58.366Z,1.02
2018-11-11T08:41:26.674Z,1.37
2018-11-11T08:43:54.408Z,2.40
2018-11-11T08:46:22.390Z,0.85
2018-11-11T08:48:49.995Z,2.25
2018-11-11T08:51:18.878Z,1.45
2018-11-11T08:53:46.519Z,1.62
2018-11-11T08:56:14.526Z,0.70
2018-11-11T08:58:42.127Z,0.70
2018-11-11T09:01:10.459Z,1.15
2018-11-11T09:03:38.580Z,1.15
2018-11-11T09:06:06.782Z,3.55
2018-11-11T09:08:34.472Z,0.80
2018-11-11T09:11:02.795Z,3.52
2018-11-11T09:13:30.430Z,1.95
2018-11-11T09:15:58.010Z,1.20
2018-11-11T09:18:26.576Z,0.70
2018-11-11T09:20:54.210Z,0.60
2018-11-11T09:23:22.070Z,1.00
2018-11-11T09:25:49.855Z,4.00
2018-11-11T09:28:18.873Z,2.87
2018-11-11T09:30:46.537Z,0.70
2018-11-11T09:33:14.212Z,1.45
2018-11-11T09:35:41.987Z,0.80
2018-11-11T09:38:09.890Z,2.12
2018-11-11T09:40:37.580Z,0.90
2018-11-11T09:43:05.881Z,1.77
2018-11-11T09:45:33.515Z,2.17
2018-11-11T09:48:01.374Z,1.02
2018-11-11T09:50:29.284Z,1.20
2018-11-11T09:52:57.069Z,0.80
2018-11-11T09:55:25.016Z,3.72
2018-11-11T09:57:53.043Z,0.90
2018-11-11T10:00:21.684Z,2.67
2018-11-11T10:02:56.076Z,1.00
2018-11-11T10:05:36.555Z,1.77
2018-11-11T10:25:29.802Z,0.98
2018-11-11T10:28:06.438Z,1.25
2018-11-11T10:30:39.088Z,0.95
2018-11-11T10:34:23.242Z,2.45
2018-11-11T10:36:54.822Z,1.42
2018-11-11T10:40:32.146Z,1.05
2018-11-11T10:43:05.593Z,2.27
2018-11-11T10:45:40.073Z,1.27
2018-11-11T10:48:08.841Z,1.92
2018-11-11T10:50:39.074Z,0.80
2018-11-11T10:53:07.254Z,1.05
2018-11-11T10:55:35.548Z,2.33
2018-11-11T10:58:03.387Z,1.98
2018-11-11T11:00:36.778Z,0.70
2018-11-11T11:03:09.481Z,0.93
2018-11-11T11:05:37.558Z,2.77
2018-11-11T11:08:06.089Z,2.25
2018-11-11T11:10:33.881Z,2.70
2018-11-11T11:13:01.903Z,1.47
2018-11-11T11:15:30.515Z,1.72
2018-11-11T11:17:59.268Z,2.25
2018-11-11T11:20:27.648Z,3.10
2018-11-11T11:22:55.965Z,0.70
2018-11-11T11:25:24.232Z,1.95
2018-11-11T11:27:53.090Z,1.42
2018-11-11T11:30:20.838Z,0.80
2018-11-11T11:32:49.729Z,1.15
2018-11-11T11:35:17.780Z,0.85
2018-11-11T11:37:45.488Z,0.80
2018-11-11T11:40:13.224Z,8.60
2018-11-11T11:42:41.219Z,0.90
2018-11-11T11:45:10.345Z,2.22
2018-11-11T11:47:38.335Z,3.85
2018-11-11T11:50:07.937Z,2.40
2018-11-11T11:52:35.939Z,1.77
2018-11-11T11:55:03.835Z,2.60
2018-11-11T11:57:31.530Z,2.87
2018-11-11T11:59:59.395Z,1.87
2018-11-11T12:02:27.077Z,1.98
2018-11-11T12:04:55.051Z,2.80
2018-11-11T12:07:22.816Z,2.22
2018-11-11T12:09:50.641Z,1.90
2018-11-11T12:12:18.360Z,1.05
2018-11-11T12:14:46.010Z,1.10
2018-11-11T12:17:13.956Z,1.80
2018-11-11T12:19:42.305Z,2.58
2018-11-11T12:22:09.918Z,2.40
2018-11-11T12:24:37.623Z,2.90
2018-11-11T12:27:06.316Z,3.13
2018-11-11T12:29:34.130Z,1.17
2018-11-11T12:32:01.995Z,1.13
2018-11-11T12:34:29.790Z,2.77
2018-11-11T12:36:57.575Z,1.90
2018-11-11T12:39:25.445Z,0.70
2018-11-11T12:41:53.223Z,3.13
2018-11-11T12:44:20.981Z,1.93
2018-11-11T12:46:49.372Z,1.83
2018-11-11T12:49:17.914Z,4.43
2018-11-11T12:51:46.124Z,3.13
2018-11-11T12:54:14.062Z,3.43
2018-11-11T12:56:41.747Z,2.13
2018-11-11T12:59:10.922Z,2.03
2018-11-11T13:01:38.636Z,3.97
2018-11-11T13:04:06.511Z,4.03
2018-11-11T13:06:34.899Z,1.47
2018-11-11T13:09:03.476Z,4.47
2018-11-11T13:11:31.484Z,6.07
2018-11-11T13:13:59.286Z,0.73
2018-11-11T13:16:27.075Z,1.57
2018-11-11T13:18:54.721Z,2.60
2018-11-11T13:21:22.369Z,4.03
2018-11-11T13:23:50.487Z,4.50
2018-11-11T13:26:19.193Z,3.63
2018-11-11T13:28:47.246Z,1.23
2018-11-11T13:31:15.241Z,2.80
2018-11-11T13:33:43.244Z,2.50
2018-11-11T13:36:11.714Z,1.63
2018-11-11T13:38:39.563Z,1.57
2018-11-11T13:41:07.960Z,1.53
2018-11-11T13:43:35.700Z,2.20
2018-11-11T13:46:03.786Z,1.03
2018-11-11T13:48:31.551Z,2.43
2018-11-11T13:50:59.828Z,1.57
2018-11-11T13:53:27.684Z,1.80
2018-11-11T13:55:55.507Z,3.10
2018-11-11T13:58:23.288Z,1.53
2018-11-11T14:00:51.487Z,3.53
2018-11-11T14:03:19.227Z,2.50
2018-11-11T14:05:46.905Z,4.60
2018-11-11T14:08:14.717Z,4.80
2018-11-11T14:10:42.568Z,1.60
2018-11-11T14:13:10.267Z,3.87
2018-11-11T14:15:38.215Z,1.30
2018-11-11T14:18:06.152Z,2.07
2018-11-11T14:20:33.978Z,1.77
2018-11-11T14:23:02.166Z,1.40
2018-11-11T14:25:30.294Z,4.20
2018-11-11T14:27:58.260Z,2.97
2018-11-11T14:30:27.050Z,1.40
2018-11-11T14:32:55.885Z,3.03
2018-11-11T14:35:23.823Z,1.50
2018-11-11T14:37:52.758Z,2.37
2018-11-11T14:40:23.349Z,5.93
2018-11-11T14:42:51.619Z,3.83
2018-11-11T14:45:20.628Z,2.50
2018-11-11T14:47:49.826Z,2.50
2018-11-11T14:50:18.277Z,2.50
2018-11-11T14:52:46.661Z,1.67
2018-11-11T14:55:20.545Z,2.33
2018-11-11T14:57:48.949Z,1.87
2018-11-11T15:00:20.224Z,1.35
2018-11-11T15:02:58.563Z,3.00
2018-11-11T15:05:26.625Z,1.92
2018-11-11T15:07:54.585Z,3.90
2018-11-11T15:10:22.322Z,4.25
2018-11-11T15:12:50.100Z,3.05
2018-11-11T15:15:18.872Z,2.55
2018-11-11T15:17:47.981Z,2.45
2018-11-11T15:20:16.776Z,3.72
2018-11-11T15:22:45.052Z,3.25
2018-11-11T15:25:14.075Z,4.15
2018-11-11T15:27:42.728Z,3.17
2018-11-11T15:30:18.184Z,1.60
2018-11-11T15:32:46.302Z,1.95
2018-11-11T15:35:14.302Z,2.25
2018-11-11T15:37:42.071Z,3.42
2018-11-11T15:40:12.452Z,2.72
2018-11-11T15:42:40.329Z,3.12
2018-11-11T15:45:11.839Z,1.75
2018-11-11T15:47:40.225Z,2.55
2018-11-11T15:50:12.041Z,0.80
2018-11-11T15:52:40.198Z,1.95
2018-11-11T15:55:09.722Z,2.35
2018-11-11T15:57:37.695Z,2.83
2018-11-11T16:00:09.896Z,3.87
2018-11-11T16:02:38.033Z,1.67
2018-11-11T16:05:06.218Z,2.15
2018-11-11T16:07:34.221Z,1.05
2018-11-11T16:10:02.716Z,2.05
2018-11-11T16:12:30.794Z,1.40
2018-11-11T16:14:58.571Z,2.40
2018-11-11T16:17:26.416Z,1.90
2018-11-11T16:19:54.248Z,1.30
2018-11-11T16:22:22.189Z,3.85
2018-11-11T16:24:50.198Z,3.15
2018-11-11T16:27:19.033Z,1.22
2018-11-11T16:29:46.842Z,1.95
2018-11-11T16:32:15.738Z,1.10
2018-11-11T16:34:43.483Z,2.50
2018-11-11T16:37:11.787Z,1.30
2018-11-11T16:39:39.566Z,1.98
2018-11-11T16:42:07.314Z,2.47
2018-11-11T16:44:36.196Z,1.85
2018-11-11T16:47:12.875Z,1.57
2018-11-11T16:49:41.334Z,1.87
2018-11-11T16:52:09.159Z,1.87
2018-11-11T16:54:36.948Z,1.85
2018-11-11T16:57:04.861Z,1.90
2018-11-11T16:59:32.957Z,0.70
2018-11-11T17:02:00.810Z,1.22
2018-11-11T17:04:29.316Z,0.70
2018-11-11T17:06:57.211Z,6.62
2018-11-11T17:09:25.777Z,0.90
2018-11-11T17:11:53.690Z,1.52
2018-11-11T17:14:21.392Z,1.35
2018-11-11T17:16:49.152Z,0.95
2018-11-11T17:19:17.014Z,1.77
2018-11-11T17:21:45.176Z,2.47
2018-11-11T17:24:13.332Z,1.17
2018-11-11T17:26:41.178Z,2.08
2018-11-11T17:29:08.991Z,0.75
2018-11-11T17:31:37.653Z,1.67
2018-11-11T17:34:05.754Z,1.57
2018-11-11T17:36:33.504Z,1.42
2018-11-11T17:39:02.048Z,0.72
2018-11-11T17:41:30.316Z,2.70
2018-11-11T17:43:58.289Z,1.55
2018-11-11T17:46:26.064Z,0.60
2018-11-11T17:48:53.944Z,4.05
2018-11-11T17:51:21.610Z,1.32
2018-11-11T17:53:50.224Z,2.12
2018-11-11T17:56:18.461Z,0.70
2018-11-11T17:58:46.928Z,1.25
2018-11-11T18:01:14.791Z,3.37
2018-11-11T18:03:42.490Z,0.95
2018-11-11T18:06:10.403Z,0.88
2018-11-11T18:08:38.265Z,4.03
2018-11-11T18:11:05.936Z,3.27
2018-11-11T18:13:34.435Z,1.35
2018-11-11T18:16:02.223Z,2.30
2018-11-11T18:18:29.978Z,2.98
2018-11-11T18:20:58.283Z,1.95
2018-11-11T18:23:29.919Z,1.45
2018-11-11T18:25:57.905Z,3.22
2018-11-11T18:28:25.896Z,1.35
2018-11-11T18:30:54.465Z,1.00
2018-11-11T18:33:23.420Z,1.22
2018-11-11T18:35:51.274Z,3.45
2018-11-11T18:38:19.679Z,2.52
2018-11-11T18:40:47.456Z,1.80
2018-11-11T18:43:15.294Z,1.25
2018-11-11T18:45:43.181Z,3.83
2018-11-11T18:48:12.503Z,1.42
2018-11-11T18:50:40.360Z,3.30
2018-11-11T18:53:08.299Z,1.85
2018-11-11T18:55:36.164Z,3.00
2018-11-11T18:58:05.289Z,1.55
2018-11-11T19:00:34.022Z,1.32
2018-11-11T19:03:02.937Z,0.90
2018-11-11T19:05:30.773Z,1.22
2018-11-11T19:07:58.865Z,1.20
2018-11-11T19:10:28.041Z,1.90
2018-11-11T19:12:57.838Z,1.30
2018-11-11T19:15:26.465Z,1.62
2018-11-11T19:17:58.010Z,2.40
2018-11-11T19:20:26.709Z,1.05
2018-11-11T19:22:54.481Z,2.02
2018-11-11T19:25:23.741Z,4.00
2018-11-11T19:27:52.506Z,1.05
2018-11-11T19:30:21.842Z,2.77
2018-11-11T19:32:50.240Z,1.32
2018-11-11T19:35:18.290Z,1.42
2018-11-11T19:37:49.067Z,1.22
2018-11-11T19:40:19.412Z,1.10
2018-11-11T19:42:47.524Z,4.17
2018-11-11T19:45:17.657Z,3.70
2018-11-11T19:47:45.761Z,1.65
2018-11-11T19:50:19.227Z,1.00
2018-11-11T19:52:48.142Z,2.85
2018-11-11T19:55:16.941Z,1.00
2018-11-11T19:57:44.855Z,1.12
2018-11-11T20:00:16.429Z,1.10
2018-11-11T20:02:45.628Z,1.15
2018-11-11T20:05:14.480Z,2.58
2018-11-11T20:07:43.834Z,1.05
2018-11-11T20:10:13.229Z,2.08
2018-11-11T20:12:41.883Z,1.10
2018-11-11T20:15:12.499Z,3.83
2018-11-11T20:17:40.536Z,1.40
2018-11-11T20:20:11.462Z,3.95
2018-11-11T20:22:40.285Z,4.47
2018-11-11T20:25:09.484Z,1.07
2018-11-11T20:27:37.789Z,1.75
2018-11-11T20:30:09.046Z,0.80
2018-11-11T20:32:37.020Z,0.80
2018-11-11T20:35:05.870Z,1.47
2018-11-11T20:37:34.188Z,1.52
2018-11-11T20:40:02.940Z,1.50
2018-11-11T20:42:30.869Z,1.10
2018-11-11T20:44:58.678Z,0.90
2018-11-11T20:47:27.039Z,2.05
2018-11-11T20:49:54.891Z,2.05
2018-11-11T20:52:22.728Z,1.00
2018-11-11T20:54:51.179Z,1.47
2018-11-11T20:57:19.466Z,1.45
2018-11-11T20:59:47.277Z,1.22
2018-11-11T21:02:15.144Z,1.60
2018-11-11T21:04:43.577Z,1.10
2018-11-11T21:07:11.351Z,0.80
2018-11-11T21:09:40.264Z,1.05
2018-11-11T21:12:09.026Z,2.43
2018-11-11T21:14:37.552Z,1.43
2018-11-11T21:17:05.747Z,1.20
2018-11-11T21:19:33.554Z,1.25
2018-11-11T21:22:01.408Z,1.20
2018-11-11T21:24:29.883Z,1.10
2018-11-11T21:26:57.582Z,0.87
2018-11-11T21:29:25.290Z,1.25
2018-11-11T21:31:53.132Z,1.10
2018-11-11T21:34:20.985Z,2.40
2018-11-11T21:36:49.421Z,1.10
2018-11-11T21:39:17.094Z,1.60
2018-11-11T21:41:44.986Z,3.23
2018-11-11T21:44:14.448Z,0.80
2018-11-11T21:46:42.161Z,1.60
2018-11-11T21:49:10.474Z,1.83
2018-11-11T21:51:38.136Z,1.00
2018-11-11T21:54:06.642Z,4.85
2018-11-11T21:56:34.305Z,2.13
2018-11-11T21:59:01.985Z,3.83
2018-11-11T22:01:29.700Z,3.47
2018-11-11T22:03:57.507Z,0.93
2018-11-11T22:06:25.212Z,1.17
2018-11-11T22:08:54.216Z,4.75
2018-11-11T22:11:22.613Z,1.40
2018-11-11T22:13:50.309Z,1.07
2018-11-11T22:16:17.961Z,0.70
2018-11-11T22:18:45.560Z,1.47
2018-11-11T22:21:13.262Z,2.20
2018-11-11T22:23:40.959Z,0.80
2018-11-11T22:26:08.661Z,0.87
2018-11-11T22:28:36.387Z,1.17
2018-11-11T22:31:04.093Z,1.10
2018-11-11T22:33:31.799Z,1.50
2018-11-11T22:35:59.395Z,1.07
2018-11-11T22:38:27.806Z,1.22
2018-11-11T22:40:55.980Z,1.00
2018-11-11T22:43:24.238Z,0.90
2018-11-11T22:45:51.938Z,0.90
2018-11-11T22:48:20.313Z,1.20
2018-11-11T22:50:48.081Z,1.60
2018-11-11T22:53:15.756Z,1.27
2018-11-11T22:55:43.633Z,1.67
2018-11-11T22:58:11.333Z,1.42
2018-11-11T23:00:43.619Z,0.93
2018-11-11T23:03:11.302Z,1.00
2018-11-11T23:05:38.999Z,1.70
2018-11-11T23:08:06.898Z,1.27
2018-11-11T23:10:34.506Z,1.10
2018-11-11T23:13:02.107Z,1.25
2018-11-11T23:15:30.530Z,0.90
2018-11-11T23:17:58.202Z,4.55
2018-11-11T23:20:26.861Z,1.37
2018-11-11T23:22:54.642Z,0.98
2018-11-11T23:25:22.373Z,1.22
2018-11-11T23:27:51.457Z,1.52
2018-11-11T23:30:22.871Z,1.00
2018-11-11T23:32:51.629Z,1.75
2018-11-11T23:35:19.290Z,1.20
2018-11-11T23:37:47.262Z,5.05
2018-11-11T23:40:16.385Z,0.90
2018-11-11T23:42:44.811Z,1.47
2018-11-11T23:45:12.501Z,0.98
2018-11-11T23:47:40.261Z,1.37
2018-11-11T23:50:10.100Z,1.00
2018-11-11T23:52:37.847Z,1.20
2018-11-11T23:55:07.342Z,1.12
2018-11-11T23:57:35.001Z,1.00
